Terminal Aerodrome Forecast
Issued by NWS Pendleton, OR

Home | Current Version | Previous Version | Text Only | Print | Product List | Glossary On
Versions: 1 2 3 4 5 6 7 8 9 10 11 12 13 14 15 16 17 18 19 20 21 22
000
FTUS46 KPDT 251900 AAA
TAFPDT
TAF AMD
KPDT 251903Z 2519/2618 34005KT P6SM SCT002 BKN110
      TEMPO 2519/2520 5SM BR BKN002
     FM252200 22015G20KT P6SM OVC080
     FM260300 22020G35KT P6SM -SHRA BKN050 OVC070
     FM260700 22022G35KT P6SM VCSH OVC040
     FM261400 22015G25KT P6SM VCSH OVC060=

USA.gov is the U.S. government's official web portal to all federal, state and local government web resources and services.